Middle Georgia Regional Airport Macon US
ICAO: KMCN
IATA: MCN
Category: Medium
Scheduled Services: Yes

Elevation: 354 ft
TransAlt. 18000 ft.

Airport Communications:
ATLANTA APP/DEP:118.95
ASOS:120.775
ATIS:120.775
CTAF:128.2
GND:121.65
MACON RDO:122.2
MACON TWR:128.2
UNICOM:122.95

KMCN Zoom In..

If Map Doesn't Load, Click Here

Runways:

(A) RW 05 length 6501 ft width 150 ft
ILS 109.50 / hdg 51

(B) RW 13 length 5000 ft width 150 ft
---- / hdg 133

(C) RW 23 length 6501 ft width 150 ft
---- / hdg 231

(D) RW 31 length 5000 ft width 150 ft
---- / hdg 313

Location; KMCN
Day. 21 / Time. 15.53 Zulu
* Altimeter: 30.19
* Temperature: 30° c. 86°f.
* Wind from: 140° Speed 06 kn.
Dewpoint: 21° c.
Visibility: 10 Statute Miles.
Clouds: Scattered 2500 ft.
Clouds: Broken 3000 ft.

KMCN 211553Z 14006KT 10SM SCT025 BKN030 30/21 A3019 RMK AO2 SLP218 T03000211


Wind From 140°
Speed 06 kn.

 
 
jpsmedia.com for Web Design worldairports.se 2018   terms of use